sensor_id;sensor_type;location;lat;lon;timestamp;P1;durP1;ratioP1;P2;durP2;ratioP2
68449;SDS011;67758;39.572;2.652;2023-03-23T00:01:06;6.30;;;2.00;;
68449;SDS011;67758;39.572;2.652;2023-03-23T00:03:38;7.03;;;1.70;;
68449;SDS011;67758;39.572;2.652;2023-03-23T00:06:07;5.90;;;1.87;;
68449;SDS011;67758;39.572;2.652;2023-03-23T00:08:34;5.53;;;1.65;;
68449;SDS011;67758;39.572;2.652;2023-03-23T00:11:10;6.43;;;1.50;;
68449;SDS011;67758;39.572;2.652;2023-03-23T00:13:41;6.18;;;1.63;;
68449;SDS011;67758;39.572;2.652;2023-03-23T00:16:08;8.20;;;1.90;;
68449;SDS011;67758;39.572;2.652;2023-03-23T00:18:44;7.43;;;1.97;;
68449;SDS011;67758;39.572;2.652;2023-03-23T00:21:11;7.68;;;2.10;;
68449;SDS011;67758;39.572;2.652;2023-03-23T00:23:36;6.78;;;2.00;;
68449;SDS011;67758;39.572;2.652;2023-03-23T00:26:03;7.47;;;1.90;;
68449;SDS011;67758;39.572;2.652;2023-03-23T00:28:29;8.73;;;1.70;;
68449;SDS011;67758;39.572;2.652;2023-03-23T00:30:56;7.35;;;1.92;;
68449;SDS011;67758;39.572;2.652;2023-03-23T00:33:23;6.30;;;1.60;;
68449;SDS011;67758;39.572;2.652;2023-03-23T00:35:53;6.07;;;1.53;;
68449;SDS011;67758;39.572;2.652;2023-03-23T00:38:20;5.57;;;1.40;;
68449;SDS011;67758;39.572;2.652;2023-03-23T00:40:47;5.28;;;1.50;;
68449;SDS011;67758;39.572;2.652;2023-03-23T00:43:16;6.53;;;1.70;;
68449;SDS011;67758;39.572;2.652;2023-03-23T00:45:44;5.90;;;1.60;;
68449;SDS011;67758;39.572;2.652;2023-03-23T00:48:14;6.60;;;1.70;;
68449;SDS011;67758;39.572;2.652;2023-03-23T00:50:40;6.32;;;1.70;;
68449;SDS011;67758;39.572;2.652;2023-03-23T00:53:06;5.67;;;2.00;;
68449;SDS011;67758;39.572;2.652;2023-03-23T00:55:32;6.22;;;1.88;;
68449;SDS011;67758;39.572;2.652;2023-03-23T00:57:59;6.40;;;2.30;;
68449;SDS011;67758;39.572;2.652;2023-03-23T01:00:25;6.95;;;1.90;;
68449;SDS011;67758;39.572;2.652;2023-03-23T01:02:52;6.60;;;1.73;;
68449;SDS011;67758;39.572;2.652;2023-03-23T01:05:18;8.13;;;2.10;;
68449;SDS011;67758;39.572;2.652;2023-03-23T01:07:44;7.57;;;1.90;;
68449;SDS011;67758;39.572;2.652;2023-03-23T01:10:11;10.18;;;2.20;;
68449;SDS011;67758;39.572;2.652;2023-03-23T01:12:44;5.63;;;1.92;;
68449;SDS011;67758;39.572;2.652;2023-03-23T01:15:15;8.33;;;2.10;;
68449;SDS011;67758;39.572;2.652;2023-03-23T01:17:42;5.93;;;1.67;;
68449;SDS011;67758;39.572;2.652;2023-03-23T01:20:09;9.00;;;2.00;;
68449;SDS011;67758;39.572;2.652;2023-03-23T01:22:36;8.55;;;1.80;;
68449;SDS011;67758;39.572;2.652;2023-03-23T01:25:02;4.90;;;1.60;;
68449;SDS011;67758;39.572;2.652;2023-03-23T01:27:28;6.30;;;1.80;;
68449;SDS011;67758;39.572;2.652;2023-03-23T01:29:54;5.82;;;1.60;;
68449;SDS011;67758;39.572;2.652;2023-03-23T01:32:20;8.10;;;1.80;;
68449;SDS011;67758;39.572;2.652;2023-03-23T01:34:46;7.63;;;1.70;;
68449;SDS011;67758;39.572;2.652;2023-03-23T01:37:11;5.20;;;1.30;;
68449;SDS011;67758;39.572;2.652;2023-03-23T01:39:38;5.67;;;1.17;;
68449;SDS011;67758;39.572;2.652;2023-03-23T01:42:03;4.43;;;1.27;;
68449;SDS011;67758;39.572;2.652;2023-03-23T01:46:55;6.53;;;1.27;;
68449;SDS011;67758;39.572;2.652;2023-03-23T01:49:23;5.47;;;1.48;;
68449;SDS011;67758;39.572;2.652;2023-03-23T01:51:54;5.85;;;1.30;;
68449;SDS011;67758;39.572;2.652;2023-03-23T01:54:23;7.72;;;1.90;;
68449;SDS011;67758;39.572;2.652;2023-03-23T01:57:01;5.23;;;1.60;;
68449;SDS011;67758;39.572;2.652;2023-03-23T01:59:29;6.05;;;1.50;;
68449;SDS011;67758;39.572;2.652;2023-03-23T02:01:57;5.68;;;1.65;;
68449;SDS011;67758;39.572;2.652;2023-03-23T02:04:23;5.15;;;1.60;;
68449;SDS011;67758;39.572;2.652;2023-03-23T02:06:53;6.40;;;1.50;;
68449;SDS011;67758;39.572;2.652;2023-03-23T02:09:21;7.10;;;1.50;;
68449;SDS011;67758;39.572;2.652;2023-03-23T02:11:47;6.45;;;1.45;;
68449;SDS011;67758;39.572;2.652;2023-03-23T02:14:15;5.32;;;1.88;;
68449;SDS011;67758;39.572;2.652;2023-03-23T02:16:47;4.80;;;1.45;;
68449;SDS011;67758;39.572;2.652;2023-03-23T02:22:51;6.63;;;1.30;;
68449;SDS011;67758;39.572;2.652;2023-03-23T02:36:33;5.78;;;1.30;;
68449;SDS011;67758;39.572;2.652;2023-03-23T02:39:20;6.78;;;1.60;;
68449;SDS011;67758;39.572;2.652;2023-03-23T02:41:52;7.20;;;1.23;;
68449;SDS011;67758;39.572;2.652;2023-03-23T02:44:22;4.88;;;1.15;;
68449;SDS011;67758;39.572;2.652;2023-03-23T02:46:50;5.73;;;1.30;;
68449;SDS011;67758;39.572;2.652;2023-03-23T02:49:18;8.27;;;1.42;;
68449;SDS011;67758;39.572;2.652;2023-03-23T02:51:46;5.35;;;1.08;;
68449;SDS011;67758;39.572;2.652;2023-03-23T02:54:13;5.15;;;1.40;;
68449;SDS011;67758;39.572;2.652;2023-03-23T02:56:41;6.43;;;1.08;;
68449;SDS011;67758;39.572;2.652;2023-03-23T02:59:08;7.43;;;0.80;;
68449;SDS011;67758;39.572;2.652;2023-03-23T03:04:04;3.50;;;0.93;;
68449;SDS011;67758;39.572;2.652;2023-03-23T03:06:36;6.43;;;0.95;;
68449;SDS011;67758;39.572;2.652;2023-03-23T03:11:58;4.67;;;1.00;;
68449;SDS011;67758;39.572;2.652;2023-03-23T03:14:45;4.68;;;0.88;;
68449;SDS011;67758;39.572;2.652;2023-03-23T03:17:22;4.95;;;0.73;;
68449;SDS011;67758;39.572;2.652;2023-03-23T03:19:51;6.25;;;1.00;;
68449;SDS011;67758;39.572;2.652;2023-03-23T03:22:22;6.75;;;1.15;;
68449;SDS011;67758;39.572;2.652;2023-03-23T03:24:54;5.07;;;1.17;;
68449;SDS011;67758;39.572;2.652;2023-03-23T03:27:25;5.28;;;1.40;;
68449;SDS011;67758;39.572;2.652;2023-03-23T03:29:53;5.00;;;1.23;;
68449;SDS011;67758;39.572;2.652;2023-03-23T03:32:26;6.78;;;1.30;;
68449;SDS011;67758;39.572;2.652;2023-03-23T03:35:00;5.57;;;0.95;;
68449;SDS011;67758;39.572;2.652;2023-03-23T03:37:32;3.67;;;0.70;;
68449;SDS011;67758;39.572;2.652;2023-03-23T03:40:07;4.72;;;0.80;;
68449;SDS011;67758;39.572;2.652;2023-03-23T03:42:40;4.47;;;0.80;;
68449;SDS011;67758;39.572;2.652;2023-03-23T03:45:07;3.65;;;0.65;;
68449;SDS011;67758;39.572;2.652;2023-03-23T03:47:34;4.10;;;1.00;;
68449;SDS011;67758;39.572;2.652;2023-03-23T03:50:00;4.17;;;0.73;;
68449;SDS011;67758;39.572;2.652;2023-03-23T03:52:26;4.95;;;0.90;;
68449;SDS011;67758;39.572;2.652;2023-03-23T03:54:52;4.28;;;0.82;;
68449;SDS011;67758;39.572;2.652;2023-03-23T03:57:18;3.53;;;0.70;;
68449;SDS011;67758;39.572;2.652;2023-03-23T03:59:44;5.93;;;0.98;;
68449;SDS011;67758;39.572;2.652;2023-03-23T04:02:11;6.85;;;0.80;;
68449;SDS011;67758;39.572;2.652;2023-03-23T04:04:40;10.70;;;1.05;;
68449;SDS011;67758;39.572;2.652;2023-03-23T04:07:06;5.57;;;0.77;;
68449;SDS011;67758;39.572;2.652;2023-03-23T04:09:32;4.90;;;0.80;;
68449;SDS011;67758;39.572;2.652;2023-03-23T04:11:58;4.93;;;1.35;;
68449;SDS011;67758;39.572;2.652;2023-03-23T04:14:24;3.60;;;0.70;;
68449;SDS011;67758;39.572;2.652;2023-03-23T04:16:49;3.50;;;0.85;;
68449;SDS011;67758;39.572;2.652;2023-03-23T04:19:17;5.83;;;0.80;;
68449;SDS011;67758;39.572;2.652;2023-03-23T04:21:43;4.22;;;0.90;;
68449;SDS011;67758;39.572;2.652;2023-03-23T04:24:14;5.03;;;1.10;;
68449;SDS011;67758;39.572;2.652;2023-03-23T04:26:41;5.53;;;1.17;;
68449;SDS011;67758;39.572;2.652;2023-03-23T04:29:07;4.97;;;1.15;;
68449;SDS011;67758;39.572;2.652;2023-03-23T04:31:34;4.00;;;0.73;;
68449;SDS011;67758;39.572;2.652;2023-03-23T04:34:01;4.38;;;1.00;;
68449;SDS011;67758;39.572;2.652;2023-03-23T04:36:27;3.70;;;0.82;;
68449;SDS011;67758;39.572;2.652;2023-03-23T04:38:59;5.70;;;0.70;;
68449;SDS011;67758;39.572;2.652;2023-03-23T04:41:25;4.65;;;1.17;;
68449;SDS011;67758;39.572;2.652;2023-03-23T04:43:51;5.73;;;0.90;;
68449;SDS011;67758;39.572;2.652;2023-03-23T04:46:19;5.60;;;1.30;;
68449;SDS011;67758;39.572;2.652;2023-03-23T04:48:46;7.38;;;1.40;;
68449;SDS011;67758;39.572;2.652;2023-03-23T04:51:12;6.78;;;1.65;;
68449;SDS011;67758;39.572;2.652;2023-03-23T04:53:38;5.65;;;1.00;;
68449;SDS011;67758;39.572;2.652;2023-03-23T04:56:04;7.37;;;1.20;;
68449;SDS011;67758;39.572;2.652;2023-03-23T04:58:32;5.65;;;1.50;;
68449;SDS011;67758;39.572;2.652;2023-03-23T05:00:59;6.63;;;1.40;;
68449;SDS011;67758;39.572;2.652;2023-03-23T05:03:29;5.03;;;1.17;;
68449;SDS011;67758;39.572;2.652;2023-03-23T05:05:55;8.63;;;1.20;;
68449;SDS011;67758;39.572;2.652;2023-03-23T05:08:22;7.68;;;1.30;;
68449;SDS011;67758;39.572;2.652;2023-03-23T05:10:53;7.55;;;1.20;;
68449;SDS011;67758;39.572;2.652;2023-03-23T05:13:20;4.97;;;1.10;;
68449;SDS011;67758;39.572;2.652;2023-03-23T05:15:47;5.88;;;1.00;;
68449;SDS011;67758;39.572;2.652;2023-03-23T05:18:13;6.03;;;1.20;;
68449;SDS011;67758;39.572;2.652;2023-03-23T05:20:39;8.05;;;1.20;;
68449;SDS011;67758;39.572;2.652;2023-03-23T05:23:07;6.40;;;1.15;;
68449;SDS011;67758;39.572;2.652;2023-03-23T05:25:33;9.33;;;1.80;;
68449;SDS011;67758;39.572;2.652;2023-03-23T05:28:02;5.72;;;1.10;;
68449;SDS011;67758;39.572;2.652;2023-03-23T05:30:28;6.75;;;1.58;;
68449;SDS011;67758;39.572;2.652;2023-03-23T05:32:55;6.50;;;1.60;;
68449;SDS011;67758;39.572;2.652;2023-03-23T05:35:20;5.83;;;1.57;;
68449;SDS011;67758;39.572;2.652;2023-03-23T05:37:46;7.20;;;1.52;;
68449;SDS011;67758;39.572;2.652;2023-03-23T05:40:12;6.03;;;1.30;;
68449;SDS011;67758;39.572;2.652;2023-03-23T05:42:38;6.40;;;1.30;;
68449;SDS011;67758;39.572;2.652;2023-03-23T05:45:07;7.05;;;1.77;;
68449;SDS011;67758;39.572;2.652;2023-03-23T05:47:34;8.13;;;1.58;;
68449;SDS011;67758;39.572;2.652;2023-03-23T05:50:01;5.97;;;1.40;;
68449;SDS011;67758;39.572;2.652;2023-03-23T05:52:27;8.37;;;1.77;;
68449;SDS011;67758;39.572;2.652;2023-03-23T05:54:54;12.13;;;1.73;;
68449;SDS011;67758;39.572;2.652;2023-03-23T05:57:20;6.00;;;1.57;;
68449;SDS011;67758;39.572;2.652;2023-03-23T05:59:47;7.33;;;1.90;;
68449;SDS011;67758;39.572;2.652;2023-03-23T06:02:13;9.38;;;2.03;;
68449;SDS011;67758;39.572;2.652;2023-03-23T06:04:39;6.95;;;1.65;;
68449;SDS011;67758;39.572;2.652;2023-03-23T06:07:06;7.38;;;2.00;;
68449;SDS011;67758;39.572;2.652;2023-03-23T06:09:37;6.45;;;1.63;;
68449;SDS011;67758;39.572;2.652;2023-03-23T06:12:03;10.50;;;1.80;;
68449;SDS011;67758;39.572;2.652;2023-03-23T06:14:29;10.85;;;1.85;;
68449;SDS011;67758;39.572;2.652;2023-03-23T06:16:57;6.18;;;1.77;;
68449;SDS011;67758;39.572;2.652;2023-03-23T06:19:23;7.47;;;2.80;;
68449;SDS011;67758;39.572;2.652;2023-03-23T06:21:52;7.63;;;2.03;;
68449;SDS011;67758;39.572;2.652;2023-03-23T06:24:19;9.35;;;2.50;;
68449;SDS011;67758;39.572;2.652;2023-03-23T06:26:45;7.43;;;1.90;;
68449;SDS011;67758;39.572;2.652;2023-03-23T06:29:10;8.93;;;1.70;;
68449;SDS011;67758;39.572;2.652;2023-03-23T06:31:38;6.90;;;1.88;;
68449;SDS011;67758;39.572;2.652;2023-03-23T06:34:07;9.17;;;2.10;;
68449;SDS011;67758;39.572;2.652;2023-03-23T06:36:46;9.02;;;2.58;;
68449;SDS011;67758;39.572;2.652;2023-03-23T06:39:16;11.88;;;2.40;;
68449;SDS011;67758;39.572;2.652;2023-03-23T06:41:51;6.60;;;2.40;;
68449;SDS011;67758;39.572;2.652;2023-03-23T06:48:11;8.13;;;2.47;;
68449;SDS011;67758;39.572;2.652;2023-03-23T06:51:09;8.15;;;2.50;;
68449;SDS011;67758;39.572;2.652;2023-03-23T06:53:36;8.45;;;2.70;;
68449;SDS011;67758;39.572;2.652;2023-03-23T06:56:02;8.23;;;2.88;;
68449;SDS011;67758;39.572;2.652;2023-03-23T06:58:28;7.63;;;2.77;;
68449;SDS011;67758;39.572;2.652;2023-03-23T07:00:55;11.75;;;2.60;;
68449;SDS011;67758;39.572;2.652;2023-03-23T07:03:22;11.32;;;3.00;;
68449;SDS011;67758;39.572;2.652;2023-03-23T07:08:55;9.10;;;3.50;;
68449;SDS011;67758;39.572;2.652;2023-03-23T07:11:21;12.65;;;3.78;;
68449;SDS011;67758;39.572;2.652;2023-03-23T07:13:49;10.23;;;3.45;;
68449;SDS011;67758;39.572;2.652;2023-03-23T07:16:15;11.85;;;3.80;;
68449;SDS011;67758;39.572;2.652;2023-03-23T07:18:43;10.13;;;3.90;;
68449;SDS011;67758;39.572;2.652;2023-03-23T07:21:10;9.35;;;3.58;;
68449;SDS011;67758;39.572;2.652;2023-03-23T07:23:42;8.25;;;3.40;;
68449;SDS011;67758;39.572;2.652;2023-03-23T07:26:08;10.93;;;3.80;;
68449;SDS011;67758;39.572;2.652;2023-03-23T07:28:35;8.53;;;3.40;;
68449;SDS011;67758;39.572;2.652;2023-03-23T07:31:01;14.57;;;3.72;;
68449;SDS011;67758;39.572;2.652;2023-03-23T07:33:27;8.45;;;3.17;;
68449;SDS011;67758;39.572;2.652;2023-03-23T07:35:54;10.13;;;2.80;;
68449;SDS011;67758;39.572;2.652;2023-03-23T07:38:34;10.50;;;3.07;;
68449;SDS011;67758;39.572;2.652;2023-03-23T07:41:02;11.00;;;3.00;;
68449;SDS011;67758;39.572;2.652;2023-03-23T07:43:28;15.27;;;3.25;;
68449;SDS011;67758;39.572;2.652;2023-03-23T07:45:53;7.60;;;2.70;;
68449;SDS011;67758;39.572;2.652;2023-03-23T07:48:19;12.23;;;3.40;;
68449;SDS011;67758;39.572;2.652;2023-03-23T07:50:45;8.00;;;2.70;;
68449;SDS011;67758;39.572;2.652;2023-03-23T07:53:12;12.87;;;3.13;;
68449;SDS011;67758;39.572;2.652;2023-03-23T07:55:38;11.48;;;3.30;;
68449;SDS011;67758;39.572;2.652;2023-03-23T07:58:04;11.25;;;3.28;;
68449;SDS011;67758;39.572;2.652;2023-03-23T08:00:30;11.82;;;3.25;;
68449;SDS011;67758;39.572;2.652;2023-03-23T08:02:58;10.75;;;2.92;;
68449;SDS011;67758;39.572;2.652;2023-03-23T08:05:24;10.17;;;3.10;;
68449;SDS011;67758;39.572;2.652;2023-03-23T08:07:52;9.25;;;1.88;;
68449;SDS011;67758;39.572;2.652;2023-03-23T08:10:22;7.38;;;1.38;;
68449;SDS011;67758;39.572;2.652;2023-03-23T08:12:50;7.82;;;1.70;;
68449;SDS011;67758;39.572;2.652;2023-03-23T08:15:18;10.43;;;2.00;;
68449;SDS011;67758;39.572;2.652;2023-03-23T08:17:44;13.37;;;2.97;;
68449;SDS011;67758;39.572;2.652;2023-03-23T08:20:11;10.20;;;2.60;;
68449;SDS011;67758;39.572;2.652;2023-03-23T08:22:43;7.82;;;2.67;;
68449;SDS011;67758;39.572;2.652;2023-03-23T08:25:16;6.87;;;1.70;;
68449;SDS011;67758;39.572;2.652;2023-03-23T08:27:44;8.32;;;2.42;;
68449;SDS011;67758;39.572;2.652;2023-03-23T08:30:23;9.95;;;2.45;;
68449;SDS011;67758;39.572;2.652;2023-03-23T08:32:51;8.65;;;2.38;;
68449;SDS011;67758;39.572;2.652;2023-03-23T08:35:18;6.78;;;1.88;;
68449;SDS011;67758;39.572;2.652;2023-03-23T08:37:47;8.90;;;1.40;;
68449;SDS011;67758;39.572;2.652;2023-03-23T08:40:21;6.22;;;1.27;;
68449;SDS011;67758;39.572;2.652;2023-03-23T08:43:11;6.07;;;1.33;;
68449;SDS011;67758;39.572;2.652;2023-03-23T08:45:40;5.22;;;1.05;;
68449;SDS011;67758;39.572;2.652;2023-03-23T08:48:06;7.43;;;1.33;;
68449;SDS011;67758;39.572;2.652;2023-03-23T08:50:32;5.63;;;1.00;;
68449;SDS011;67758;39.572;2.652;2023-03-23T08:52:58;3.70;;;0.80;;
68449;SDS011;67758;39.572;2.652;2023-03-23T08:55:25;6.68;;;0.70;;
68449;SDS011;67758;39.572;2.652;2023-03-23T08:57:54;9.80;;;0.90;;
68449;SDS011;67758;39.572;2.652;2023-03-23T09:00:22;6.78;;;1.10;;
68449;SDS011;67758;39.572;2.652;2023-03-23T09:02:50;6.57;;;0.80;;
68449;SDS011;67758;39.572;2.652;2023-03-23T09:05:20;7.30;;;1.25;;
68449;SDS011;67758;39.572;2.652;2023-03-23T09:07:52;5.00;;;0.50;;
68449;SDS011;67758;39.572;2.652;2023-03-23T09:10:20;7.50;;;0.63;;
68449;SDS011;67758;39.572;2.652;2023-03-23T09:12:47;4.85;;;0.80;;
68449;SDS011;67758;39.572;2.652;2023-03-23T09:15:16;5.03;;;1.10;;
68449;SDS011;67758;39.572;2.652;2023-03-23T09:17:47;6.32;;;0.80;;
68449;SDS011;67758;39.572;2.652;2023-03-23T09:20:15;3.40;;;0.50;;
68449;SDS011;67758;39.572;2.652;2023-03-23T09:22:44;7.22;;;0.98;;
68449;SDS011;67758;39.572;2.652;2023-03-23T09:25:15;5.82;;;0.70;;
68449;SDS011;67758;39.572;2.652;2023-03-23T09:27:48;9.10;;;0.77;;
68449;SDS011;67758;39.572;2.652;2023-03-23T09:30:19;4.63;;;0.73;;
68449;SDS011;67758;39.572;2.652;2023-03-23T09:32:45;5.78;;;0.70;;
68449;SDS011;67758;39.572;2.652;2023-03-23T09:35:17;6.25;;;1.15;;
68449;SDS011;67758;39.572;2.652;2023-03-23T09:37:46;5.40;;;0.63;;
68449;SDS011;67758;39.572;2.652;2023-03-23T09:40:15;5.13;;;0.60;;
68449;SDS011;67758;39.572;2.652;2023-03-23T09:45:36;6.25;;;0.60;;
68449;SDS011;67758;39.572;2.652;2023-03-23T09:48:20;7.05;;;0.93;;
68449;SDS011;67758;39.572;2.652;2023-03-23T09:51:03;7.68;;;0.90;;
68449;SDS011;67758;39.572;2.652;2023-03-23T09:53:38;4.60;;;0.50;;
68449;SDS011;67758;39.572;2.652;2023-03-23T09:56:13;6.68;;;0.77;;
68449;SDS011;67758;39.572;2.652;2023-03-23T09:58:46;6.47;;;0.75;;
68449;SDS011;67758;39.572;2.652;2023-03-23T10:01:26;6.68;;;0.60;;
68449;SDS011;67758;39.572;2.652;2023-03-23T10:04:10;8.30;;;0.68;;
68449;SDS011;67758;39.572;2.652;2023-03-23T10:06:58;5.13;;;0.77;;
68449;SDS011;67758;39.572;2.652;2023-03-23T10:09:30;4.38;;;0.52;;
68449;SDS011;67758;39.572;2.652;2023-03-23T10:12:04;5.75;;;0.63;;
68449;SDS011;67758;39.572;2.652;2023-03-23T10:17:33;6.97;;;0.70;;
68449;SDS011;67758;39.572;2.652;2023-03-23T10:23:08;3.95;;;0.60;;
68449;SDS011;67758;39.572;2.652;2023-03-23T10:25:54;7.32;;;1.10;;
68449;SDS011;67758;39.572;2.652;2023-03-23T10:28:32;8.70;;;1.02;;
68449;SDS011;67758;39.572;2.652;2023-03-23T10:31:05;7.40;;;0.73;;
68449;SDS011;67758;39.572;2.652;2023-03-23T10:33:42;9.05;;;0.98;;
68449;SDS011;67758;39.572;2.652;2023-03-23T10:36:15;4.20;;;0.77;;
68449;SDS011;67758;39.572;2.652;2023-03-23T10:39:30;3.53;;;0.68;;
68449;SDS011;67758;39.572;2.652;2023-03-23T10:42:04;4.45;;;1.02;;
68449;SDS011;67758;39.572;2.652;2023-03-23T10:44:32;5.40;;;1.20;;
68449;SDS011;67758;39.572;2.652;2023-03-23T10:47:03;5.05;;;1.13;;
68449;SDS011;67758;39.572;2.652;2023-03-23T10:49:33;6.30;;;1.38;;
68449;SDS011;67758;39.572;2.652;2023-03-23T10:55:13;6.38;;;1.23;;
68449;SDS011;67758;39.572;2.652;2023-03-23T10:57:42;5.57;;;0.90;;
68449;SDS011;67758;39.572;2.652;2023-03-23T11:03:06;5.47;;;1.67;;
68449;SDS011;67758;39.572;2.652;2023-03-23T11:08:22;7.32;;;1.60;;
68449;SDS011;67758;39.572;2.652;2023-03-23T11:11:08;6.10;;;1.60;;
68449;SDS011;67758;39.572;2.652;2023-03-23T11:13:44;8.10;;;1.80;;
68449;SDS011;67758;39.572;2.652;2023-03-23T11:16:33;5.50;;;1.60;;
68449;SDS011;67758;39.572;2.652;2023-03-23T11:19:11;10.13;;;1.60;;
68449;SDS011;67758;39.572;2.652;2023-03-23T11:21:39;8.05;;;1.90;;
68449;SDS011;67758;39.572;2.652;2023-03-23T11:24:07;7.70;;;1.93;;
68449;SDS011;67758;39.572;2.652;2023-03-23T11:26:43;8.32;;;1.92;;
68449;SDS011;67758;39.572;2.652;2023-03-23T11:29:19;6.88;;;1.92;;
68449;SDS011;67758;39.572;2.652;2023-03-23T11:31:49;8.88;;;2.38;;
68449;SDS011;67758;39.572;2.652;2023-03-23T11:34:19;7.07;;;2.25;;
68449;SDS011;67758;39.572;2.652;2023-03-23T11:36:54;7.87;;;1.77;;
68449;SDS011;67758;39.572;2.652;2023-03-23T11:39:32;9.20;;;1.90;;
68449;SDS011;67758;39.572;2.652;2023-03-23T11:42:34;8.48;;;1.98;;
68449;SDS011;67758;39.572;2.652;2023-03-23T11:45:13;8.40;;;2.35;;
68449;SDS011;67758;39.572;2.652;2023-03-23T11:50:22;8.80;;;2.00;;
68449;SDS011;67758;39.572;2.652;2023-03-23T11:55:49;9.52;;;2.38;;
68449;SDS011;67758;39.572;2.652;2023-03-23T11:58:22;7.90;;;1.90;;
68449;SDS011;67758;39.572;2.652;2023-03-23T12:00:51;6.18;;;2.17;;
68449;SDS011;67758;39.572;2.652;2023-03-23T12:06:28;6.68;;;2.10;;
68449;SDS011;67758;39.572;2.652;2023-03-23T12:09:24;7.38;;;2.38;;
68449;SDS011;67758;39.572;2.652;2023-03-23T12:12:09;8.70;;;2.20;;
68449;SDS011;67758;39.572;2.652;2023-03-23T12:17:58;7.73;;;2.13;;
68449;SDS011;67758;39.572;2.652;2023-03-23T12:20:50;9.77;;;2.00;;
68449;SDS011;67758;39.572;2.652;2023-03-23T12:26:24;14.73;;;2.53;;
68449;SDS011;67758;39.572;2.652;2023-03-23T12:29:16;8.77;;;2.03;;
68449;SDS011;67758;39.572;2.652;2023-03-23T12:31:53;5.20;;;1.50;;
68449;SDS011;67758;39.572;2.652;2023-03-23T12:37:18;9.25;;;2.20;;
68449;SDS011;67758;39.572;2.652;2023-03-23T12:48:58;8.15;;;1.55;;
68449;SDS011;67758;39.572;2.652;2023-03-23T12:51:32;10.93;;;1.80;;
68449;SDS011;67758;39.572;2.652;2023-03-23T12:54:23;5.97;;;1.40;;
68449;SDS011;67758;39.572;2.652;2023-03-23T12:57:16;6.03;;;1.80;;
68449;SDS011;67758;39.572;2.652;2023-03-23T13:02:32;6.47;;;1.60;;
68449;SDS011;67758;39.572;2.652;2023-03-23T13:05:05;7.20;;;2.10;;
68449;SDS011;67758;39.572;2.652;2023-03-23T13:07:36;9.90;;;1.85;;
68449;SDS011;67758;39.572;2.652;2023-03-23T13:10:23;7.35;;;1.50;;
68449;SDS011;67758;39.572;2.652;2023-03-23T13:12:53;9.67;;;1.77;;
68449;SDS011;67758;39.572;2.652;2023-03-23T13:18:04;9.88;;;1.58;;
68449;SDS011;67758;39.572;2.652;2023-03-23T13:20:43;9.07;;;1.33;;
68449;SDS011;67758;39.572;2.652;2023-03-23T13:23:29;7.07;;;1.48;;
68449;SDS011;67758;39.572;2.652;2023-03-23T13:28:59;9.10;;;1.50;;
68449;SDS011;67758;39.572;2.652;2023-03-23T13:31:30;7.22;;;1.60;;
68449;SDS011;67758;39.572;2.652;2023-03-23T13:34:05;8.95;;;1.70;;
68449;SDS011;67758;39.572;2.652;2023-03-23T13:36:43;10.90;;;1.80;;
68449;SDS011;67758;39.572;2.652;2023-03-23T13:39:19;7.27;;;1.40;;
68449;SDS011;67758;39.572;2.652;2023-03-23T13:42:00;7.57;;;1.52;;
68449;SDS011;67758;39.572;2.652;2023-03-23T14:05:36;6.03;;;1.10;;
68449;SDS011;67758;39.572;2.652;2023-03-23T14:08:03;8.57;;;0.85;;
68449;SDS011;67758;39.572;2.652;2023-03-23T14:13:30;9.73;;;2.60;;
68449;SDS011;67758;39.572;2.652;2023-03-23T14:16:19;9.93;;;2.88;;
68449;SDS011;67758;39.572;2.652;2023-03-23T14:18:51;15.17;;;1.70;;
68449;SDS011;67758;39.572;2.652;2023-03-23T14:21:25;11.85;;;2.70;;
68449;SDS011;67758;39.572;2.652;2023-03-23T14:24:05;6.18;;;1.40;;
68449;SDS011;67758;39.572;2.652;2023-03-23T14:26:36;7.72;;;1.42;;
68449;SDS011;67758;39.572;2.652;2023-03-23T14:29:03;11.05;;;2.33;;
68449;SDS011;67758;39.572;2.652;2023-03-23T14:31:29;5.63;;;1.40;;
68449;SDS011;67758;39.572;2.652;2023-03-23T14:33:56;9.82;;;1.23;;
68449;SDS011;67758;39.572;2.652;2023-03-23T14:36:27;8.32;;;1.38;;
68449;SDS011;67758;39.572;2.652;2023-03-23T14:41:47;7.13;;;1.13;;
68449;SDS011;67758;39.572;2.652;2023-03-23T14:44:15;8.77;;;1.27;;
68449;SDS011;67758;39.572;2.652;2023-03-23T14:46:43;10.60;;;1.38;;
68449;SDS011;67758;39.572;2.652;2023-03-23T14:49:11;5.40;;;1.10;;
68449;SDS011;67758;39.572;2.652;2023-03-23T14:51:52;6.30;;;1.50;;
68449;SDS011;67758;39.572;2.652;2023-03-23T14:54:24;9.50;;;1.45;;
68449;SDS011;67758;39.572;2.652;2023-03-23T14:56:51;8.73;;;1.17;;
68449;SDS011;67758;39.572;2.652;2023-03-23T14:59:16;10.95;;;1.77;;
68449;SDS011;67758;39.572;2.652;2023-03-23T15:01:42;9.02;;;1.67;;
68449;SDS011;67758;39.572;2.652;2023-03-23T15:04:12;10.43;;;1.63;;
68449;SDS011;67758;39.572;2.652;2023-03-23T15:06:45;12.65;;;1.48;;
68449;SDS011;67758;39.572;2.652;2023-03-23T15:09:17;7.35;;;1.20;;
68449;SDS011;67758;39.572;2.652;2023-03-23T15:11:50;8.27;;;1.20;;
68449;SDS011;67758;39.572;2.652;2023-03-23T15:14:21;11.05;;;1.63;;
68449;SDS011;67758;39.572;2.652;2023-03-23T15:16:52;11.47;;;1.27;;
68449;SDS011;67758;39.572;2.652;2023-03-23T15:19:37;7.22;;;1.00;;
68449;SDS011;67758;39.572;2.652;2023-03-23T15:22:07;14.13;;;1.70;;
68449;SDS011;67758;39.572;2.652;2023-03-23T15:24:48;11.90;;;1.30;;
68449;SDS011;67758;39.572;2.652;2023-03-23T15:27:15;10.63;;;2.20;;
68449;SDS011;67758;39.572;2.652;2023-03-23T15:29:54;7.50;;;1.30;;
68449;SDS011;67758;39.572;2.652;2023-03-23T15:32:23;6.20;;;0.90;;
68449;SDS011;67758;39.572;2.652;2023-03-23T15:34:54;9.52;;;1.40;;
68449;SDS011;67758;39.572;2.652;2023-03-23T15:37:22;6.18;;;1.05;;
68449;SDS011;67758;39.572;2.652;2023-03-23T15:39:49;7.30;;;1.08;;
68449;SDS011;67758;39.572;2.652;2023-03-23T15:42:22;9.73;;;1.50;;
68449;SDS011;67758;39.572;2.652;2023-03-23T15:47:33;8.38;;;1.40;;
68449;SDS011;67758;39.572;2.652;2023-03-23T15:50:49;10.00;;;1.25;;
68449;SDS011;67758;39.572;2.652;2023-03-23T15:52:52;12.82;;;1.73;;
68449;SDS011;67758;39.572;2.652;2023-03-23T15:55:19;9.60;;;1.40;;
68449;SDS011;67758;39.572;2.652;2023-03-23T15:57:46;11.35;;;1.27;;
68449;SDS011;67758;39.572;2.652;2023-03-23T16:00:11;8.50;;;1.70;;
68449;SDS011;67758;39.572;2.652;2023-03-23T16:02:37;11.60;;;1.65;;
68449;SDS011;67758;39.572;2.652;2023-03-23T16:05:03;11.30;;;1.20;;
68449;SDS011;67758;39.572;2.652;2023-03-23T16:07:29;9.95;;;1.05;;
68449;SDS011;67758;39.572;2.652;2023-03-23T16:09:55;9.55;;;1.00;;
68449;SDS011;67758;39.572;2.652;2023-03-23T16:12:20;7.67;;;1.23;;
68449;SDS011;67758;39.572;2.652;2023-03-23T16:14:46;6.95;;;1.55;;
68449;SDS011;67758;39.572;2.652;2023-03-23T16:17:13;12.37;;;1.67;;
68449;SDS011;67758;39.572;2.652;2023-03-23T16:19:43;9.35;;;1.70;;
68449;SDS011;67758;39.572;2.652;2023-03-23T16:22:09;8.85;;;1.50;;
68449;SDS011;67758;39.572;2.652;2023-03-23T16:24:35;13.97;;;2.00;;
68449;SDS011;67758;39.572;2.652;2023-03-23T16:27:00;10.77;;;1.60;;
68449;SDS011;67758;39.572;2.652;2023-03-23T16:29:26;7.87;;;1.17;;
68449;SDS011;67758;39.572;2.652;2023-03-23T16:31:52;8.73;;;1.57;;
68449;SDS011;67758;39.572;2.652;2023-03-23T16:34:17;8.52;;;1.40;;
68449;SDS011;67758;39.572;2.652;2023-03-23T16:36:43;8.33;;;1.50;;
68449;SDS011;67758;39.572;2.652;2023-03-23T16:39:10;7.60;;;1.10;;
68449;SDS011;67758;39.572;2.652;2023-03-23T16:41:36;10.30;;;1.42;;
68449;SDS011;67758;39.572;2.652;2023-03-23T16:44:02;8.40;;;1.27;;
68449;SDS011;67758;39.572;2.652;2023-03-23T16:46:27;7.88;;;1.10;;
68449;SDS011;67758;39.572;2.652;2023-03-23T16:48:53;12.10;;;1.35;;
68449;SDS011;67758;39.572;2.652;2023-03-23T16:51:19;10.18;;;1.33;;
68449;SDS011;67758;39.572;2.652;2023-03-23T16:53:45;6.80;;;1.20;;
68449;SDS011;67758;39.572;2.652;2023-03-23T16:56:12;9.43;;;1.97;;